createdAt,value
2018-06-16T00:00:36.910Z,21.79
2018-06-16T00:01:17.409Z,21.82
2018-06-16T00:01:57.881Z,21.79
2018-06-16T00:02:38.394Z,21.82
2018-06-16T00:03:18.910Z,21.8
2018-06-16T00:03:59.433Z,21.82
2018-06-16T00:04:39.911Z,21.69
2018-06-16T00:05:20.411Z,21.77
2018-06-16T00:06:00.933Z,21.75
2018-06-16T00:06:41.361Z,21.72
2018-06-16T00:07:21.867Z,21.72
2018-06-16T00:08:02.354Z,21.84
2018-06-16T00:08:42.870Z,21.82
2018-06-16T00:09:23.393Z,21.75
2018-06-16T00:10:03.902Z,21.84
2018-06-16T00:10:44.422Z,21.84
2018-06-16T00:11:24.928Z,21.71
2018-06-16T00:12:05.402Z,21.8
2018-06-16T00:12:45.893Z,21.69
2018-06-16T00:13:26.436Z,21.75
2018-06-16T00:14:06.919Z,21.69
2018-06-16T00:14:47.432Z,21.72
2018-06-16T00:15:27.999Z,21.77
2018-06-16T00:16:08.558Z,21.77
2018-06-16T00:16:49.019Z,21.71
2018-06-16T00:17:29.455Z,21.69
2018-06-16T00:18:09.913Z,21.67
2018-06-16T00:18:50.387Z,21.69
2018-06-16T00:19:30.885Z,21.62
2018-06-16T00:20:11.391Z,21.72
2018-06-16T00:20:51.886Z,21.79
2018-06-16T00:21:32.354Z,21.77
2018-06-16T00:22:12.868Z,21.71
2018-06-16T00:22:53.359Z,21.68
2018-06-16T00:23:33.877Z,21.69
2018-06-16T00:24:14.436Z,21.67
2018-06-16T00:24:55.010Z,21.71
2018-06-16T00:25:35.529Z,21.72
2018-06-16T00:26:16.086Z,21.68
2018-06-16T00:26:56.524Z,21.69
2018-06-16T00:27:37.019Z,21.71
2018-06-16T00:28:17.548Z,21.65
2018-06-16T00:28:58.032Z,21.77
2018-06-16T00:29:38.470Z,21.59
2018-06-16T00:30:18.959Z,21.65
2018-06-16T00:30:59.480Z,21.64
2018-06-16T00:31:39.962Z,21.64
2018-06-16T00:32:20.436Z,21.61
2018-06-16T00:33:00.932Z,21.49
2018-06-16T00:33:41.432Z,21.47
2018-06-16T00:34:21.922Z,21.56
2018-06-16T00:35:02.428Z,21.53
2018-06-16T00:35:42.946Z,21.49
2018-06-16T00:37:56.285Z,21.56
2018-06-16T00:38:36.786Z,21.61
2018-06-16T00:39:17.270Z,21.47
2018-06-16T00:39:57.759Z,21.47
2018-06-16T00:40:38.294Z,21.54
2018-06-16T00:41:18.809Z,21.61
2018-06-16T00:41:59.258Z,21.46
2018-06-16T00:42:39.769Z,21.5
2018-06-16T00:43:20.269Z,21.56
2018-06-16T00:44:00.781Z,21.5
2018-06-16T00:44:41.269Z,21.59
2018-06-16T00:45:21.787Z,21.5
2018-06-16T00:46:02.286Z,21.47
2018-06-16T00:46:42.796Z,21.59
2018-06-16T00:47:23.272Z,21.58
2018-06-16T00:48:03.769Z,21.54
2018-06-16T00:48:44.265Z,21.67
2018-06-16T00:49:24.791Z,21.67
2018-06-16T00:50:05.300Z,21.65
2018-06-16T00:50:45.820Z,21.67
2018-06-16T00:51:26.289Z,21.56
2018-06-16T00:52:06.809Z,21.61
2018-06-16T00:52:47.315Z,21.68
2018-06-16T00:53:27.781Z,21.54
2018-06-16T00:54:08.262Z,21.61
2018-06-16T00:54:48.774Z,21.59
2018-06-16T00:55:29.299Z,21.64
2018-06-16T00:56:09.748Z,21.58
2018-06-16T00:56:50.234Z,21.62
2018-06-16T00:57:30.769Z,21.64
2018-06-16T00:58:11.264Z,21.58
2018-06-16T00:58:51.713Z,21.58
2018-06-16T00:59:32.985Z,21.53
2018-06-16T01:00:12.729Z,21.5
2018-06-16T01:00:53.174Z,21.47
2018-06-16T01:01:33.696Z,21.49
2018-06-16T01:02:14.194Z,21.5
2018-06-16T01:02:54.701Z,21.58
2018-06-16T01:03:35.266Z,21.61
2018-06-16T01:04:15.879Z,21.49
2018-06-16T01:04:56.246Z,21.46
2018-06-16T01:05:36.746Z,21.49
2018-06-16T01:06:17.254Z,21.4
2018-06-16T01:06:57.813Z,21.49
2018-06-16T01:07:38.261Z,21.5
2018-06-16T01:08:18.788Z,21.42
2018-06-16T01:08:59.298Z,21.31
2018-06-16T01:09:39.825Z,21.32
2018-06-16T01:10:20.283Z,21.31
2018-06-16T01:11:00.809Z,21.13
2018-06-16T01:11:41.282Z,21.24
2018-06-16T01:12:21.808Z,21.03
2018-06-16T01:13:02.301Z,21.13
2018-06-16T01:13:42.840Z,21.19
2018-06-16T01:14:23.336Z,21.12
2018-06-16T01:15:03.888Z,21.14
2018-06-16T01:15:44.442Z,21.31
2018-06-16T01:16:24.927Z,21.27
2018-06-16T01:17:05.473Z,21.31
2018-06-16T01:17:46.101Z,21.19
2018-06-16T01:18:26.649Z,21.27
2018-06-16T01:19:07.164Z,21.29
2018-06-16T01:19:47.539Z,21.28
2018-06-16T01:20:28.133Z,21.24
2018-06-16T01:21:08.559Z,21.21
2018-06-16T01:21:49.153Z,21.25
2018-06-16T01:22:29.618Z,21.31
2018-06-16T01:23:10.035Z,21.1
2018-06-16T01:23:50.658Z,21.24
2018-06-16T01:24:31.203Z,21.04
2018-06-16T01:25:11.729Z,21.09
2018-06-16T01:25:52.308Z,21.24
2018-06-16T01:26:32.734Z,21.14
2018-06-16T01:27:13.229Z,21.14
2018-06-16T01:27:53.780Z,21.19
2018-06-16T01:28:34.305Z,21.06
2018-06-16T01:29:14.857Z,21.04
2018-06-16T01:29:55.337Z,21.17
2018-06-16T01:30:35.733Z,21.17
2018-06-16T01:31:16.216Z,21.14
2018-06-16T01:31:56.790Z,21.21
2018-06-16T01:32:37.193Z,21.16
2018-06-16T01:33:17.770Z,21.19
2018-06-16T01:33:58.363Z,21.09
2018-06-16T01:34:38.846Z,21.25
2018-06-16T01:35:19.340Z,21.13
2018-06-16T01:35:59.770Z,21.24
2018-06-16T01:36:40.300Z,21.14
2018-06-16T01:37:20.751Z,21.1
2018-06-16T01:38:01.233Z,21.17
2018-06-16T01:38:41.732Z,21.13
2018-06-16T01:39:22.249Z,21.13
2018-06-16T01:40:02.732Z,21.12
2018-06-16T01:40:43.249Z,21.14
2018-06-16T01:41:23.764Z,21.09
2018-06-16T01:42:04.225Z,21.1
2018-06-16T01:42:44.715Z,21.09
2018-06-16T01:43:25.232Z,21.07
2018-06-16T01:44:05.747Z,21.04
2018-06-16T01:44:46.229Z,21.04
2018-06-16T01:45:26.746Z,20.95
2018-06-16T01:46:07.254Z,21.07
2018-06-16T01:46:47.773Z,21.01
2018-06-16T01:47:28.325Z,21.06
2018-06-16T01:48:08.831Z,21.07
2018-06-16T01:48:49.382Z,21.09
2018-06-16T01:49:29.829Z,21.03
2018-06-16T01:50:10.321Z,21.03
2018-06-16T01:50:50.863Z,21.06
2018-06-16T01:51:31.384Z,21.04
2018-06-16T01:52:11.936Z,21.09
2018-06-16T01:52:52.469Z,21.03
2018-06-16T01:53:32.952Z,20.99
2018-06-16T01:54:13.442Z,20.94
2018-06-16T01:54:54.025Z,20.99
2018-06-16T01:55:34.577Z,21.1
2018-06-16T01:56:15.058Z,20.99
2018-06-16T01:56:55.580Z,20.99
2018-06-16T01:57:36.123Z,21.03
2018-06-16T01:58:16.664Z,21.1
2018-06-16T01:58:57.148Z,21.04
2018-06-16T01:59:37.670Z,21.06
2018-06-16T02:00:18.149Z,21.04
2018-06-16T02:00:58.651Z,21.01
2018-06-16T02:01:39.155Z,21.04
2018-06-16T02:02:19.694Z,21.06
2018-06-16T02:03:00.218Z,21.03
2018-06-16T02:03:40.758Z,21.04
2018-06-16T02:04:21.217Z,21.04
2018-06-16T02:05:01.757Z,21.01
2018-06-16T02:05:42.293Z,20.91
2018-06-16T02:06:22.793Z,20.82
2018-06-16T02:07:03.258Z,20.94
2018-06-16T02:07:43.799Z,20.97
2018-06-16T02:08:24.290Z,20.87
2018-06-16T02:09:04.843Z,20.82
2018-06-16T02:09:45.319Z,20.98
2018-06-16T02:10:25.810Z,20.91
2018-06-16T02:11:06.312Z,20.92
2018-06-16T02:11:46.821Z,20.88
2018-06-16T02:12:27.332Z,20.94
2018-06-16T02:13:07.777Z,20.92
2018-06-16T02:13:48.269Z,20.73
2018-06-16T02:14:28.758Z,20.74
2018-06-16T02:15:09.365Z,20.72
2018-06-16T02:15:49.861Z,20.72
2018-06-16T02:16:30.407Z,20.74
2018-06-16T02:17:11.017Z,20.72
2018-06-16T02:17:51.521Z,20.67
2018-06-16T02:18:32.020Z,20.74
2018-06-16T02:19:12.617Z,20.73
2018-06-16T02:19:53.112Z,20.8
2018-06-16T02:20:33.613Z,20.7
2018-06-16T02:21:14.085Z,20.7
2018-06-16T02:21:54.648Z,20.72
2018-06-16T02:22:35.157Z,20.67
2018-06-16T02:23:15.619Z,20.74
2018-06-16T02:23:56.129Z,20.72
2018-06-16T02:24:36.599Z,20.77
2018-06-16T02:25:17.094Z,20.79
2018-06-16T02:25:57.555Z,20.73
2018-06-16T02:26:38.063Z,20.69
2018-06-16T02:27:18.551Z,20.74
2018-06-16T02:27:59.049Z,20.76
2018-06-16T02:28:39.592Z,20.7
2018-06-16T02:29:20.084Z,20.69
2018-06-16T02:30:00.601Z,20.58
2018-06-16T02:30:41.095Z,20.7
2018-06-16T02:31:21.613Z,20.66
2018-06-16T02:32:02.134Z,20.59
2018-06-16T02:32:42.592Z,20.57
2018-06-16T02:33:23.104Z,20.66
2018-06-16T02:34:03.601Z,20.72
2018-06-16T02:34:44.141Z,20.74
2018-06-16T02:35:24.604Z,20.77
2018-06-16T02:36:05.111Z,20.72
2018-06-16T02:36:45.602Z,20.76
2018-06-16T02:37:26.081Z,20.7
2018-06-16T02:38:06.576Z,20.7
2018-06-16T02:38:47.098Z,20.79
2018-06-16T02:39:27.586Z,20.72
2018-06-16T02:40:08.136Z,20.7
2018-06-16T02:40:48.587Z,20.7
2018-06-16T02:41:29.144Z,20.74
2018-06-16T02:42:09.596Z,20.73
2018-06-16T02:42:50.132Z,20.59
2018-06-16T02:43:30.643Z,20.62
2018-06-16T02:44:11.141Z,20.62
2018-06-16T02:44:51.626Z,20.76
2018-06-16T02:45:32.151Z,20.73
2018-06-16T02:46:12.637Z,20.62
2018-06-16T02:46:53.216Z,20.7
2018-06-16T02:47:33.633Z,20.69
2018-06-16T02:48:14.156Z,20.62
2018-06-16T02:48:54.662Z,20.69
2018-06-16T02:49:35.193Z,20.69
2018-06-16T02:50:15.840Z,20.59
2018-06-16T02:50:56.241Z,20.52
2018-06-16T02:51:36.754Z,20.62
2018-06-16T02:52:17.337Z,20.61
2018-06-16T02:52:57.721Z,20.7
2018-06-16T02:53:38.228Z,20.79
2018-06-16T02:54:18.696Z,20.59
2018-06-16T02:54:59.208Z,20.64
2018-06-16T02:55:39.708Z,20.64
2018-06-16T02:56:20.207Z,20.54
2018-06-16T02:57:00.785Z,20.61
2018-06-16T02:57:41.222Z,20.61
2018-06-16T02:58:21.708Z,20.57
2018-06-16T02:59:02.236Z,20.74
2018-06-16T02:59:42.733Z,20.72
2018-06-16T03:00:23.218Z,20.54
2018-06-16T03:01:03.694Z,20.57
2018-06-16T03:01:44.208Z,20.74
2018-06-16T03:02:24.682Z,20.72
2018-06-16T03:03:05.130Z,20.58
2018-06-16T03:03:45.640Z,20.73
2018-06-16T03:04:26.141Z,20.59
2018-06-16T03:05:06.608Z,20.61
2018-06-16T03:05:47.120Z,20.66
2018-06-16T03:06:27.583Z,20.69
2018-06-16T03:07:08.081Z,20.72
2018-06-16T03:07:48.569Z,20.58
2018-06-16T03:08:29.051Z,20.5
2018-06-16T03:09:09.561Z,20.59
2018-06-16T03:09:50.101Z,20.54
2018-06-16T03:10:30.564Z,20.59
2018-06-16T03:11:11.103Z,20.59
2018-06-16T03:11:51.626Z,20.61
2018-06-16T03:12:32.152Z,20.58
2018-06-16T03:13:12.649Z,20.58
2018-06-16T03:13:53.175Z,20.69
2018-06-16T03:14:33.689Z,20.64
2018-06-16T03:15:14.212Z,20.57
2018-06-16T03:15:54.691Z,20.73
2018-06-16T03:16:35.198Z,20.73
2018-06-16T03:17:15.772Z,20.66
2018-06-16T03:17:56.220Z,20.69
2018-06-16T03:18:36.757Z,20.59
2018-06-16T03:19:17.259Z,20.57
2018-06-16T03:19:57.713Z,20.58
2018-06-16T03:20:38.159Z,20.72
2018-06-16T03:21:18.663Z,20.73
2018-06-16T03:21:59.175Z,20.66
2018-06-16T03:22:39.607Z,20.62
2018-06-16T03:23:20.127Z,20.7
2018-06-16T03:24:00.648Z,20.54
2018-06-16T03:24:41.106Z,20.61
2018-06-16T03:25:21.568Z,20.74
2018-06-16T03:26:02.047Z,20.73
2018-06-16T03:26:42.562Z,20.58
2018-06-16T03:27:23.072Z,20.57
2018-06-16T03:28:03.585Z,20.59
2018-06-16T03:28:44.052Z,20.61
2018-06-16T03:29:24.552Z,20.57
2018-06-16T03:30:05.090Z,20.59
2018-06-16T03:30:45.692Z,20.72
2018-06-16T03:31:26.115Z,20.57
2018-06-16T03:32:06.621Z,20.77
2018-06-16T03:32:47.117Z,20.72
2018-06-16T03:33:27.590Z,20.58
2018-06-16T03:34:08.112Z,20.52
2018-06-16T03:34:48.639Z,20.69
2018-06-16T03:35:29.138Z,20.67
2018-06-16T03:36:09.691Z,20.73
2018-06-16T03:36:50.173Z,20.69
2018-06-16T03:37:30.765Z,20.57
2018-06-16T03:38:11.160Z,20.58
2018-06-16T03:38:51.682Z,20.69
2018-06-16T03:39:32.201Z,20.67
2018-06-16T03:40:12.673Z,20.54
2018-06-16T03:40:53.174Z,20.57
2018-06-16T03:41:33.644Z,20.69
2018-06-16T03:42:14.179Z,20.64
2018-06-16T03:42:54.688Z,20.69
2018-06-16T03:43:35.291Z,20.69
2018-06-16T03:44:15.755Z,20.82
2018-06-16T03:44:56.210Z,20.84
2018-06-16T03:45:36.915Z,20.7
2018-06-16T03:46:17.426Z,20.72
2018-06-16T03:46:58.008Z,20.74
2018-06-16T03:47:38.687Z,20.67
2018-06-16T03:48:19.203Z,20.84
2018-06-16T03:48:59.729Z,20.89
2018-06-16T03:49:40.173Z,20.73
2018-06-16T03:50:20.627Z,20.84
2018-06-16T03:51:01.105Z,20.8
2018-06-16T03:51:41.614Z,20.84
2018-06-16T03:52:22.100Z,20.85
2018-06-16T03:53:02.600Z,20.82
2018-06-16T03:53:43.060Z,20.98
2018-06-16T03:54:23.579Z,21.04
2018-06-16T03:55:04.055Z,20.97
2018-06-16T03:55:44.582Z,21.03
2018-06-16T03:56:25.012Z,20.97
2018-06-16T03:57:05.516Z,21.01
2018-06-16T03:57:46.038Z,21.07
2018-06-16T03:58:26.514Z,21.06
2018-06-16T03:59:07.037Z,21.16
2018-06-16T03:59:47.514Z,21.16
2018-06-16T04:00:27.993Z,21.04
2018-06-16T04:01:08.497Z,21.19
2018-06-16T04:01:49.058Z,21.04
2018-06-16T04:02:29.533Z,21.13
2018-06-16T04:03:10.038Z,21.03
2018-06-16T04:03:50.531Z,21.06
2018-06-16T04:04:31.038Z,21.01
2018-06-16T04:05:11.531Z,21.06
2018-06-16T04:05:52.069Z,21.07
2018-06-16T04:06:33.319Z,21.13
2018-06-16T04:07:13.808Z,21.13
2018-06-16T04:07:54.339Z,21.04
2018-06-16T04:08:34.867Z,21.13
2018-06-16T04:09:15.292Z,21.17
2018-06-16T04:09:55.803Z,21.13
2018-06-16T04:10:36.297Z,21.16
2018-06-16T04:11:16.803Z,21.17
2018-06-16T04:11:57.344Z,21.22
2018-06-16T04:12:37.899Z,21.29
2018-06-16T04:13:18.399Z,21.31
2018-06-16T04:13:58.902Z,21.24
2018-06-16T04:14:39.445Z,21.17
2018-06-16T04:15:19.910Z,21.19
2018-06-16T04:16:00.468Z,21.31
2018-06-16T04:16:40.942Z,21.28
2018-06-16T04:17:21.400Z,21.32
2018-06-16T04:18:01.860Z,21.47
2018-06-16T04:18:42.361Z,21.38
2018-06-16T04:19:22.877Z,21.35
2018-06-16T04:20:03.394Z,21.46
2018-06-16T04:20:43.893Z,21.37
2018-06-16T04:21:24.413Z,21.42
2018-06-16T04:22:04.941Z,21.37
2018-06-16T04:22:45.398Z,21.4
2018-06-16T04:23:25.888Z,21.31
2018-06-16T04:24:06.424Z,21.35
2018-06-16T04:24:46.937Z,21.31
2018-06-16T04:25:27.397Z,21.43
2018-06-16T04:26:07.931Z,21.46
2018-06-16T04:26:48.405Z,21.49
2018-06-16T04:27:28.947Z,21.49
2018-06-16T04:28:09.426Z,21.47
2018-06-16T04:28:49.935Z,21.34
2018-06-16T04:29:30.437Z,21.29
2018-06-16T04:30:10.961Z,21.34
2018-06-16T04:30:51.439Z,21.35
2018-06-16T04:31:32.079Z,21.34
2018-06-16T04:32:12.586Z,21.34
2018-06-16T04:32:53.148Z,21.43
2018-06-16T04:33:33.654Z,21.44
2018-06-16T04:34:14.073Z,21.5
2018-06-16T04:34:54.702Z,21.5
2018-06-16T04:35:35.215Z,21.49
2018-06-16T04:36:15.712Z,21.49
2018-06-16T04:36:56.249Z,21.4
2018-06-16T04:37:36.711Z,21.47
2018-06-16T04:38:17.240Z,21.52
2018-06-16T04:38:57.707Z,21.5
2018-06-16T04:39:38.263Z,21.49
2018-06-16T04:40:18.734Z,21.34
2018-06-16T04:40:59.196Z,21.37
2018-06-16T04:41:39.718Z,21.38
2018-06-16T04:42:20.212Z,21.42
2018-06-16T04:43:00.746Z,21.43
2018-06-16T04:43:41.241Z,21.46
2018-06-16T04:44:21.772Z,21.38
2018-06-16T04:45:02.290Z,21.31
2018-06-16T04:45:42.855Z,21.29
2018-06-16T04:46:23.277Z,21.29
2018-06-16T04:47:03.771Z,21.37
2018-06-16T04:47:44.287Z,21.37
2018-06-16T04:48:24.805Z,21.37
2018-06-16T04:49:05.334Z,21.4
2018-06-16T04:49:45.847Z,21.37
2018-06-16T04:50:26.342Z,21.38
2018-06-16T04:52:24.488Z,21.4
2018-06-16T04:53:04.994Z,21.5
2018-06-16T04:53:45.509Z,21.58
2018-06-16T04:54:26.019Z,21.4
2018-06-16T04:55:06.535Z,21.47
2018-06-16T04:55:47.036Z,21.43
2018-06-16T04:56:27.535Z,21.44
2018-06-16T04:57:08.048Z,21.46
2018-06-16T04:57:48.578Z,21.5
2018-06-16T04:58:29.044Z,21.52
2018-06-16T04:59:09.583Z,21.61
2018-06-16T04:59:50.061Z,21.64
2018-06-16T05:00:30.541Z,21.59
2018-06-16T05:01:11.056Z,21.64
2018-06-16T05:01:51.558Z,21.59
2018-06-16T05:02:32.098Z,21.56
2018-06-16T05:03:12.503Z,21.56
2018-06-16T05:03:53.041Z,21.52
2018-06-16T05:04:33.471Z,21.4
2018-06-16T05:05:13.980Z,21.49
2018-06-16T05:05:54.425Z,21.49
2018-06-16T05:06:34.980Z,21.47
2018-06-16T05:07:15.426Z,21.46
2018-06-16T05:07:55.948Z,21.49
2018-06-16T05:08:36.501Z,21.58
2018-06-16T05:09:16.937Z,21.43
2018-06-16T05:09:57.370Z,21.47
2018-06-16T05:10:37.884Z,21.29
2018-06-16T05:11:18.342Z,21.31
2018-06-16T05:11:58.848Z,21.34
2018-06-16T05:12:39.337Z,21.32
2018-06-16T05:13:19.850Z,21.4
2018-06-16T05:14:00.372Z,21.43
2018-06-16T05:14:40.821Z,21.42
2018-06-16T05:15:21.309Z,21.56
2018-06-16T05:16:01.816Z,21.5
2018-06-16T05:16:42.324Z,21.47
2018-06-16T05:17:22.836Z,21.53
2018-06-16T05:18:03.315Z,21.58
2018-06-16T05:18:43.838Z,21.58
2018-06-16T05:19:24.334Z,21.64
2018-06-16T05:20:04.793Z,21.68
2018-06-16T05:20:45.277Z,21.64
2018-06-16T05:21:25.769Z,21.52
2018-06-16T05:22:06.305Z,21.65
2018-06-16T05:22:47.147Z,21.65
2018-06-16T05:23:27.638Z,21.65
2018-06-16T05:24:08.114Z,21.65
2018-06-16T05:24:48.564Z,21.74
2018-06-16T05:25:29.064Z,21.69
2018-06-16T05:26:09.524Z,21.69
2018-06-16T05:26:49.974Z,21.67
2018-06-16T05:27:30.469Z,21.75
2018-06-16T05:28:11.012Z,21.72
2018-06-16T05:28:51.482Z,21.71
2018-06-16T05:29:32.017Z,21.71
2018-06-16T05:30:12.587Z,21.8
2018-06-16T05:30:53.077Z,21.82
2018-06-16T05:31:33.534Z,21.74
2018-06-16T05:32:14.090Z,21.68
2018-06-16T05:32:54.598Z,21.72
2018-06-16T05:33:35.079Z,21.88
2018-06-16T05:34:15.603Z,21.77
2018-06-16T05:34:56.125Z,21.75
2018-06-16T05:35:36.619Z,21.84
2018-06-16T05:36:17.052Z,21.84
2018-06-16T05:36:57.500Z,21.84
2018-06-16T05:37:38.023Z,21.91
2018-06-16T05:38:18.533Z,21.9
2018-06-16T05:38:59.019Z,22.02
2018-06-16T05:39:39.513Z,21.9
2018-06-16T05:40:20.000Z,21.88
2018-06-16T05:41:00.486Z,21.8
2018-06-16T05:41:40.961Z,21.79
2018-06-16T05:42:21.481Z,21.75
2018-06-16T05:43:02.179Z,21.77
2018-06-16T05:43:42.735Z,21.72
2018-06-16T05:44:23.230Z,21.79
2018-06-16T05:45:03.768Z,21.83
2018-06-16T05:45:44.248Z,21.86
2018-06-16T05:46:24.732Z,21.98
2018-06-16T05:47:05.204Z,21.94
2018-06-16T05:47:45.716Z,22.02
2018-06-16T05:48:26.207Z,22.06
2018-06-16T05:49:06.674Z,22.06
2018-06-16T05:49:47.207Z,22.06
2018-06-16T05:50:27.760Z,22.17
2018-06-16T05:51:08.234Z,22.18
2018-06-16T05:51:48.730Z,22.18
2018-06-16T05:52:29.204Z,22.1
2018-06-16T05:53:09.725Z,22.24
2018-06-16T05:53:50.204Z,22.18
2018-06-16T05:54:30.678Z,22.17
2018-06-16T05:55:11.194Z,22.17
2018-06-16T05:55:51.750Z,22.2
2018-06-16T05:56:32.241Z,22.21
2018-06-16T05:57:12.753Z,22.28
2018-06-16T05:57:53.224Z,22.22
2018-06-16T05:58:33.712Z,22.2
2018-06-16T05:59:14.220Z,22.31
2018-06-16T05:59:54.671Z,22.2
2018-06-16T06:00:35.213Z,22.27
2018-06-16T06:01:15.657Z,22.15
2018-06-16T06:01:56.141Z,22.31
2018-06-16T06:02:36.660Z,22.15
2018-06-16T06:03:17.129Z,22.3
2018-06-16T06:03:57.660Z,22.3
2018-06-16T06:04:38.207Z,22.28
2018-06-16T06:05:18.728Z,22.35
2018-06-16T06:05:59.183Z,22.37
2018-06-16T06:06:39.610Z,22.46
2018-06-16T06:07:20.184Z,22.4
2018-06-16T06:08:00.679Z,22.31
2018-06-16T06:08:41.195Z,22.3
2018-06-16T06:09:21.667Z,22.33
2018-06-16T06:10:02.189Z,22.36
2018-06-16T06:10:42.674Z,22.35
2018-06-16T06:11:23.191Z,22.43
2018-06-16T06:12:03.665Z,22.49
2018-06-16T06:12:44.165Z,22.54
2018-06-16T06:13:24.632Z,22.42
2018-06-16T06:14:05.170Z,22.52
2018-06-16T06:14:45.619Z,22.51
2018-06-16T06:15:26.124Z,22.55
2018-06-16T06:16:06.639Z,22.54
2018-06-16T06:16:47.125Z,22.47
2018-06-16T06:17:27.665Z,22.51
2018-06-16T06:18:08.171Z,22.58
2018-06-16T06:18:48.627Z,22.64
2018-06-16T06:19:29.151Z,22.57
2018-06-16T06:20:09.650Z,22.54
2018-06-16T06:20:50.142Z,22.62
2018-06-16T06:21:30.656Z,22.61
2018-06-16T06:22:11.132Z,22.61
2018-06-16T06:22:51.671Z,22.65
2018-06-16T06:23:32.171Z,22.75
2018-06-16T06:24:12.638Z,22.64
2018-06-16T06:24:53.134Z,22.67
2018-06-16T06:25:33.649Z,22.72
2018-06-16T06:26:14.128Z,22.67
2018-06-16T06:26:54.624Z,22.73
2018-06-16T06:27:35.106Z,22.77
2018-06-16T06:28:15.639Z,22.82
2018-06-16T06:28:56.159Z,22.94
2018-06-16T06:29:36.679Z,22.83
2018-06-16T06:30:17.136Z,22.97
2018-06-16T06:30:57.695Z,22.97
2018-06-16T06:31:38.330Z,22.97
2018-06-16T06:32:18.801Z,22.97
2018-06-16T06:32:59.331Z,22.94
2018-06-16T06:33:39.850Z,22.98
2018-06-16T06:34:20.362Z,23.05
2018-06-16T06:35:00.934Z,23.17
2018-06-16T06:35:41.384Z,23.16
2018-06-16T06:36:21.943Z,23.25
2018-06-16T06:37:02.444Z,23.17
2018-06-16T06:37:42.944Z,23.22
2018-06-16T06:38:23.484Z,23.19
2018-06-16T06:39:03.933Z,23.27
2018-06-16T06:39:44.427Z,23.4
2018-06-16T06:40:24.999Z,23.31
2018-06-16T06:41:05.623Z,23.35
2018-06-16T06:41:46.139Z,23.38
2018-06-16T06:42:26.615Z,23.33
2018-06-16T06:43:07.220Z,23.42
2018-06-16T06:43:47.824Z,23.51
2018-06-16T06:44:28.312Z,23.43
2018-06-16T06:45:08.840Z,23.48
2018-06-16T06:45:49.324Z,23.43
2018-06-16T06:46:29.844Z,23.54
2018-06-16T06:47:10.533Z,23.63
2018-06-16T06:47:51.128Z,23.54
2018-06-16T06:48:31.647Z,23.68
2018-06-16T06:49:12.143Z,23.73
2018-06-16T06:49:52.680Z,23.58
2018-06-16T06:50:33.160Z,23.72
2018-06-16T06:51:13.763Z,23.72
2018-06-16T06:51:54.185Z,23.69
2018-06-16T06:52:34.805Z,23.66
2018-06-16T06:53:15.691Z,23.84
2018-06-16T06:53:56.239Z,23.85
2018-06-16T06:54:36.657Z,23.91
2018-06-16T06:55:17.161Z,24.02
2018-06-16T06:55:57.705Z,24.1
2018-06-16T06:56:38.183Z,24.16
2018-06-16T06:57:19.207Z,24.12
2018-06-16T06:58:00.126Z,24.18
2018-06-16T06:58:40.822Z,24.16
2018-06-16T06:59:21.257Z,24.22
2018-06-16T07:00:01.731Z,24.28
2018-06-16T07:00:42.334Z,24.24
2018-06-16T07:01:22.931Z,24.28
2018-06-16T07:02:03.596Z,24.27
2018-06-16T07:02:44.169Z,24.3
2018-06-16T07:03:24.618Z,24.28
2018-06-16T07:04:05.187Z,24.16
2018-06-16T07:04:45.621Z,24.27
2018-06-16T07:05:26.385Z,24.25
2018-06-16T07:06:06.980Z,24.35
2018-06-16T07:06:47.438Z,24.25
2018-06-16T07:07:28.328Z,24.34
2018-06-16T07:08:08.761Z,24.45
2018-06-16T07:08:49.251Z,24.31
2018-06-16T07:09:29.771Z,24.1
2018-06-16T07:10:10.243Z,24.15
2018-06-16T07:10:50.749Z,24.22
2018-06-16T07:11:32.040Z,24.31
2018-06-16T07:12:12.893Z,24.35
2018-06-16T07:12:53.420Z,24.49
2018-06-16T07:13:33.995Z,24.39
2018-06-16T07:14:14.438Z,24.42
2018-06-16T07:14:54.943Z,24.43
2018-06-16T07:15:35.431Z,24.6
2018-06-16T07:16:15.993Z,24.64
2018-06-16T07:16:56.458Z,24.6
2018-06-16T07:17:36.950Z,24.53
2018-06-16T07:18:17.526Z,24.52
2018-06-16T07:18:58.092Z,24.57
2018-06-16T07:19:38.638Z,24.67
2018-06-16T07:20:19.132Z,24.62
2018-06-16T07:20:59.645Z,24.83
2018-06-16T07:21:40.161Z,24.96
2018-06-16T07:22:20.644Z,25.1
2018-06-16T07:23:01.141Z,25.18
2018-06-16T07:23:41.626Z,25.08
2018-06-16T07:24:22.135Z,25.02
2018-06-16T07:25:02.616Z,24.99
2018-06-16T07:25:43.160Z,25
2018-06-16T07:26:23.705Z,25
2018-06-16T07:27:04.250Z,25.1
2018-06-16T07:27:44.754Z,25.21
2018-06-16T07:28:25.215Z,25.09
2018-06-16T07:29:05.785Z,25.27
2018-06-16T07:29:46.207Z,25.23
2018-06-16T07:30:26.727Z,25.13
2018-06-16T07:31:07.234Z,25.21
2018-06-16T07:31:47.726Z,25.14
2018-06-16T07:32:28.237Z,25.27
2018-06-16T07:33:08.750Z,25.17
2018-06-16T07:33:49.284Z,25.08
2018-06-16T07:34:29.807Z,25.13
2018-06-16T07:35:10.309Z,25.21
2018-06-16T07:35:50.828Z,25.21
2018-06-16T07:36:31.326Z,25.33
2018-06-16T07:37:11.808Z,25.2
2018-06-16T07:37:52.346Z,25.3
2018-06-16T07:38:32.809Z,25.39
2018-06-16T07:39:13.323Z,25.33
2018-06-16T07:39:53.828Z,25.39
2018-06-16T07:40:34.309Z,25.38
2018-06-16T07:41:14.901Z,25.47
2018-06-16T07:41:55.483Z,25.54
2018-06-16T07:42:35.938Z,25.52
2018-06-16T07:43:16.397Z,25.55
2018-06-16T07:43:56.920Z,25.51
2018-06-16T07:44:37.514Z,25.6
2018-06-16T07:45:18.002Z,25.52
2018-06-16T07:45:58.544Z,25.5
2018-06-16T07:46:39.023Z,25.51
2018-06-16T07:47:19.502Z,25.6
2018-06-16T07:48:00.011Z,25.69
2018-06-16T07:48:40.495Z,25.54
2018-06-16T07:49:20.994Z,25.54
2018-06-16T07:50:01.494Z,25.42
2018-06-16T07:50:41.978Z,25.4
2018-06-16T07:51:22.490Z,25.35
2018-06-16T07:52:03.043Z,25.42
2018-06-16T07:52:43.573Z,25.45
2018-06-16T07:53:24.012Z,25.45
2018-06-16T07:54:04.527Z,25.45
2018-06-16T07:54:45.071Z,25.5
2018-06-16T07:55:25.555Z,25.54
2018-06-16T07:56:06.561Z,25.58
2018-06-16T07:56:47.121Z,25.58
2018-06-16T07:57:27.581Z,25.67
2018-06-16T07:58:08.073Z,25.77
2018-06-16T07:58:48.726Z,25.75
2018-06-16T07:59:29.150Z,25.67
2018-06-16T08:00:09.628Z,25.73
2018-06-16T08:00:50.156Z,25.76
2018-06-16T08:01:30.659Z,25.87
2018-06-16T08:02:11.134Z,25.79
2018-06-16T08:02:51.716Z,25.79
2018-06-16T08:03:32.501Z,25.73
2018-06-16T08:04:12.776Z,25.92
2018-06-16T08:04:53.239Z,25.88
2018-06-16T08:05:33.795Z,25.95
2018-06-16T08:06:14.267Z,25.73
2018-06-16T08:06:54.737Z,25.75
2018-06-16T08:07:35.235Z,26.02
2018-06-16T08:08:15.772Z,26.05
2018-06-16T08:08:56.332Z,26.12
2018-06-16T08:09:36.823Z,26.13
2018-06-16T08:10:17.317Z,26.1
2018-06-16T08:10:57.837Z,26.28
2018-06-16T08:11:38.354Z,26.3
2018-06-16T08:12:18.854Z,26.37
2018-06-16T08:12:59.414Z,26.39
2018-06-16T08:13:39.933Z,26.36
2018-06-16T08:14:20.466Z,26.47
2018-06-16T08:15:00.994Z,26.6
2018-06-16T08:15:41.535Z,26.67
2018-06-16T08:16:22.088Z,26.69
2018-06-16T08:17:02.579Z,26.75
2018-06-16T08:17:43.052Z,26.88
2018-06-16T08:18:23.545Z,26.88
2018-06-16T08:19:04.026Z,26.84
2018-06-16T08:19:44.562Z,26.87
2018-06-16T08:20:25.061Z,26.84
2018-06-16T08:21:05.592Z,26.84
2018-06-16T08:21:46.053Z,26.8
2018-06-16T08:22:26.569Z,26.77
2018-06-16T08:23:07.040Z,26.91
2018-06-16T08:23:47.605Z,26.8
2018-06-16T08:24:28.099Z,26.91
2018-06-16T08:25:08.630Z,26.77
2018-06-16T08:25:49.181Z,26.69
2018-06-16T08:26:29.621Z,26.8
2018-06-16T08:27:10.165Z,26.84
2018-06-16T08:27:50.654Z,26.77
2018-06-16T08:28:31.111Z,26.85
2018-06-16T08:29:11.666Z,26.8
2018-06-16T08:29:52.161Z,26.75
2018-06-16T08:30:32.621Z,26.72
2018-06-16T08:31:13.158Z,26.6
2018-06-16T08:31:53.753Z,26.69
2018-06-16T08:32:34.201Z,26.81
2018-06-16T08:33:14.717Z,26.91
2018-06-16T08:33:55.206Z,26.89
2018-06-16T08:34:35.718Z,26.84
2018-06-16T08:35:16.211Z,26.87
2018-06-16T08:35:56.714Z,26.97
2018-06-16T08:36:37.256Z,26.84
2018-06-16T08:37:17.714Z,26.84
2018-06-16T08:37:58.184Z,26.82
2018-06-16T08:38:38.708Z,26.69
2018-06-16T08:39:19.230Z,26.69
2018-06-16T08:39:59.724Z,26.72
2018-06-16T08:40:40.246Z,26.72
2018-06-16T08:41:20.748Z,26.67
2018-06-16T08:42:01.265Z,26.63
2018-06-16T08:42:41.811Z,26.55
2018-06-16T08:43:22.389Z,26.52
2018-06-16T08:44:02.879Z,26.5
2018-06-16T08:44:43.345Z,26.43
2018-06-16T08:45:23.860Z,26.39
2018-06-16T08:46:04.333Z,26.23
2018-06-16T08:46:44.817Z,26.26